Time;durP1;ratioP1;P1;durP2;ratioP2;P2;SDS_P1;SDS_P2;PMS_P1;PMS_P2;Temp;Humidity;BMP_temperature;BMP_pressure;BME280_temperature;BME280_humidity;BME280_pressure;Samples;Min_cycle;Max_cycle;Signal;HPM_P1;HPM_P2
2023/10/01 00:00:08;;;;;;;15.07;7.28;;;;;;;;;;5002753;28;99269;-72
2023/10/01 00:02:35;;;;;;;13.23;7.30;;;;;;;;;;5002237;28;98903;-72
2023/10/01 00:05:06;;;;;;;15.50;7.70;;;;;;;;;;5001708;28;99245;-71
2023/10/01 00:07:39;;;;;;;10.50;6.93;;;;;;;;;;5001793;28;100331;-71
2023/10/01 00:10:10;;;;;;;18.10;6.50;;;;;;;;;;4997330;28;100960;-71
2023/10/01 00:12:38;;;;;;;15.73;7.38;;;;;;;;;;5001706;28;100974;-71
2023/10/01 00:15:06;;;;;;;9.55;6.68;;;;;;;;;;5002206;28;100205;-72
2023/10/01 00:17:32;;;;;;;14.10;6.90;;;;;;;;;;5001393;28;99443;-72
2023/10/01 00:20:01;;;;;;;10.50;6.80;;;;;;;;;;5003393;28;100057;-71
2023/10/01 00:22:27;;;;;;;12.52;7.53;;;;;;;;;;5002833;28;99798;-74
2023/10/01 00:24:54;;;;;;;10.65;7.25;;;;;;;;;;5002652;28;99053;-72
2023/10/01 00:27:20;;;;;;;11.15;7.13;;;;;;;;;;4995757;28;98786;-71
2023/10/01 00:29:46;;;;;;;11.18;8.05;;;;;;;;;;5000290;28;101178;-71
2023/10/01 00:32:13;;;;;;;10.93;7.35;;;;;;;;;;5002515;28;100761;-72
2023/10/01 00:34:39;;;;;;;14.00;7.90;;;;;;;;;;5007098;28;99342;-71
2023/10/01 00:37:06;;;;;;;10.23;7.05;;;;;;;;;;5005242;28;100313;-71
2023/10/01 00:39:34;;;;;;;13.00;7.97;;;;;;;;;;5005990;28;98895;-72
2023/10/01 00:42:00;;;;;;;10.18;7.25;;;;;;;;;;5006452;28;99041;-72
2023/10/01 00:44:27;;;;;;;9.82;7.75;;;;;;;;;;5004665;28;100185;-71
2023/10/01 00:46:53;;;;;;;14.50;8.32;;;;;;;;;;5002151;28;99125;-71
2023/10/01 00:49:22;;;;;;;13.25;8.13;;;;;;;;;;5002657;28;99748;-72
2023/10/01 00:51:49;;;;;;;8.98;7.97;;;;;;;;;;5006413;28;98994;-71
2023/10/01 00:54:16;;;;;;;10.40;7.45;;;;;;;;;;4999685;28;99328;-71
2023/10/01 00:56:44;;;;;;;12.30;8.02;;;;;;;;;;5005175;28;101460;-72
2023/10/01 00:59:10;;;;;;;12.57;8.18;;;;;;;;;;5034616;27;100701;-72
2023/10/01 01:01:39;;;;;;;13.30;8.40;;;;;;;;;;5000803;28;102149;-73
2023/10/01 01:04:17;;;;;;;11.73;7.90;;;;;;;;;;5003935;28;99092;-71
2023/10/01 01:06:47;;;;;;;22.38;8.63;;;;;;;;;;5002813;28;99250;-71
2023/10/01 01:09:15;;;;;;;14.80;8.30;;;;;;;;;;5002188;28;99854;-72
2023/10/01 01:11:46;;;;;;;13.95;7.72;;;;;;;;;;4999957;28;98806;-72
2023/10/01 01:14:12;;;;;;;11.38;8.40;;;;;;;;;;5000081;28;99921;-72
2023/10/01 01:16:40;;;;;;;10.93;7.70;;;;;;;;;;4996504;28;98224;-71
2023/10/01 01:19:09;;;;;;;8.48;6.70;;;;;;;;;;5004382;28;99079;-71
2023/10/01 01:21:42;;;;;;;11.88;7.80;;;;;;;;;;5001008;28;99044;-72
2023/10/01 01:24:09;;;;;;;11.77;7.10;;;;;;;;;;4997703;28;103318;-70
2023/10/01 01:26:37;;;;;;;10.27;6.53;;;;;;;;;;5000879;28;99926;-72
2023/10/01 01:29:17;;;;;;;15.45;6.97;;;;;;;;;;5002221;28;99521;-72
2023/10/01 01:32:02;;;;;;;12.70;7.63;;;;;;;;;;5002373;28;101591;-71
2023/10/01 01:34:29;;;;;;;11.85;6.13;;;;;;;;;;4999927;28;100586;-72
2023/10/01 01:36:57;;;;;;;8.00;6.63;;;;;;;;;;5002394;28;100603;-74
2023/10/01 01:39:36;;;;;;;16.92;6.50;;;;;;;;;;5000743;28;100076;-72
2023/10/01 01:42:02;;;;;;;9.32;5.82;;;;;;;;;;5002914;28;99124;-71
2023/10/01 01:44:31;;;;;;;10.07;5.72;;;;;;;;;;5003314;28;99603;-71
2023/10/01 01:47:00;;;;;;;14.93;6.07;;;;;;;;;;5000601;28;98963;-71
2023/10/01 01:49:28;;;;;;;10.13;6.20;;;;;;;;;;5002427;28;102009;-71
2023/10/01 01:51:59;;;;;;;10.10;5.63;;;;;;;;;;5004029;28;99664;-71
2023/10/01 01:54:27;;;;;;;8.13;5.20;;;;;;;;;;5002567;28;99211;-72
2023/10/01 01:56:56;;;;;;;7.15;5.38;;;;;;;;;;5003633;28;99358;-71
2023/10/01 01:59:28;;;;;;;13.73;5.32;;;;;;;;;;5003761;28;100011;-71
2023/10/01 02:01:59;;;;;;;13.82;6.20;;;;;;;;;;5002432;28;100304;-71
2023/10/01 02:04:26;;;;;;;8.68;5.47;;;;;;;;;;5004417;28;99508;-71
2023/10/01 02:06:54;;;;;;;11.90;5.55;;;;;;;;;;5005895;28;99838;-71
2023/10/01 02:09:24;;;;;;;9.32;5.10;;;;;;;;;;4999508;28;101261;-70
2023/10/01 02:11:52;;;;;;;6.72;4.78;;;;;;;;;;4999299;28;99415;-72
2023/10/01 02:14:30;;;;;;;5.88;4.43;;;;;;;;;;5003637;28;99282;-72
2023/10/01 02:17:13;;;;;;;10.15;5.03;;;;;;;;;;5002776;28;103336;-72
2023/10/01 02:19:40;;;;;;;7.13;4.85;;;;;;;;;;5000679;28;98962;-72
2023/10/01 02:22:09;;;;;;;11.75;5.18;;;;;;;;;;5001977;28;100032;-71
2023/10/01 02:27:11;;;;;;;10.05;5.05;;;;;;;;;;5000740;28;100304;-71
2023/10/01 02:32:23;;;;;;;4.57;3.85;;;;;;;;;;5001958;28;99334;-71
2023/10/01 02:34:50;;;;;;;9.52;4.70;;;;;;;;;;5001038;28;100079;-72
2023/10/01 02:37:29;;;;;;;7.50;4.13;;;;;;;;;;4995541;28;99720;-71
2023/10/01 02:40:14;;;;;;;9.27;4.57;;;;;;;;;;4998255;28;100242;-72
2023/10/01 02:42:43;;;;;;;11.57;5.60;;;;;;;;;;4998836;28;100214;-71
2023/10/01 02:45:30;;;;;;;11.65;5.20;;;;;;;;;;4998494;28;101063;-71
2023/10/01 02:50:48;;;;;;;8.95;4.43;;;;;;;;;;5002149;28;100572;-71
2023/10/01 02:53:19;;;;;;;11.45;4.93;;;;;;;;;;5002868;28;98870;-72
2023/10/01 02:55:47;;;;;;;10.20;4.25;;;;;;;;;;5004024;28;99367;-72
2023/10/01 02:58:50;;;;;;;12.82;4.72;;;;;;;;;;5003703;28;98182;-72
2023/10/01 03:01:13;;;;;;;9.68;4.40;;;;;;;;;;4996576;28;100172;-71
2023/10/01 03:03:40;;;;;;;13.25;4.47;;;;;;;;;;4998196;28;101460;-72
2023/10/01 03:06:09;;;;;;;8.45;4.53;;;;;;;;;;4997600;28;100293;-71
2023/10/01 03:09:28;;;;;;;9.10;4.00;;;;;;;;;;4995125;28;101769;-72
2023/10/01 03:11:24;;;;;;;15.45;4.45;;;;;;;;;;4992404;28;101632;-72
2023/10/01 03:13:54;;;;;;;9.27;4.93;;;;;;;;;;4999914;28;99281;-71
2023/10/01 03:16:42;;;;;;;10.13;4.78;;;;;;;;;;5002164;28;98874;-71
2023/10/01 03:19:27;;;;;;;8.52;4.68;;;;;;;;;;5004116;28;99195;-72
2023/10/01 03:24:32;;;;;;;13.75;5.88;;;;;;;;;;4998705;28;99681;-71
2023/10/01 03:27:13;;;;;;;11.10;4.30;;;;;;;;;;4998635;28;99499;-72
2023/10/01 03:29:42;;;;;;;6.93;4.00;;;;;;;;;;4999580;28;99174;-71
2023/10/01 03:32:27;;;;;;;8.82;4.32;;;;;;;;;;5003691;28;99323;-72
2023/10/01 03:34:53;;;;;;;13.02;4.60;;;;;;;;;;5003470;28;100303;-71
2023/10/01 03:37:22;;;;;;;11.02;4.20;;;;;;;;;;5001984;28;99741;-71
2023/10/01 03:39:52;;;;;;;8.20;4.50;;;;;;;;;;4998169;28;99498;-71
2023/10/01 03:42:19;;;;;;;11.80;4.38;;;;;;;;;;4995133;28;100046;-71
2023/10/01 03:47:34;;;;;;;10.50;4.40;;;;;;;;;;4999035;28;100566;-72
2023/10/01 03:50:03;;;;;;;9.88;4.68;;;;;;;;;;4992269;28;101339;-71
2023/10/01 03:52:30;;;;;;;8.60;4.53;;;;;;;;;;5005257;28;99879;-71
2023/10/01 03:55:15;;;;;;;10.23;4.28;;;;;;;;;;4994521;28;99261;-72
2023/10/01 03:57:56;;;;;;;9.45;4.43;;;;;;;;;;4999706;28;99743;-72
2023/10/01 04:00:32;;;;;;;11.50;5.20;;;;;;;;;;4997118;28;100568;-72
2023/10/01 04:03:00;;;;;;;8.32;4.53;;;;;;;;;;4995526;28;100209;-71
2023/10/01 04:05:38;;;;;;;8.40;4.28;;;;;;;;;;4998363;28;100169;-72
2023/10/01 04:08:07;;;;;;;10.00;4.20;;;;;;;;;;4998393;28;100275;-71
2023/10/01 04:10:35;;;;;;;13.75;4.65;;;;;;;;;;4994799;28;100930;-71
2023/10/01 04:13:12;;;;;;;13.27;5.10;;;;;;;;;;5001018;28;99826;-72
2023/10/01 04:16:08;;;;;;;8.30;4.63;;;;;;;;;;5001328;28;100311;-73
2023/10/01 04:18:28;;;;;;;12.45;4.53;;;;;;;;;;5004055;28;100191;-71
2023/10/01 04:23:49;;;;;;;7.38;3.97;;;;;;;;;;5000384;28;99974;-73
2023/10/01 04:26:17;;;;;;;8.95;4.78;;;;;;;;;;5000820;28;100236;-71
2023/10/01 04:28:44;;;;;;;11.70;4.53;;;;;;;;;;4995286;28;100495;-71
2023/10/01 04:31:19;;;;;;;10.02;4.65;;;;;;;;;;5003896;28;100146;-71
2023/10/01 04:33:47;;;;;;;14.55;3.95;;;;;;;;;;5002299;28;99946;-71
2023/10/01 04:36:19;;;;;;;10.93;4.75;;;;;;;;;;4995163;28;100491;-71
2023/10/01 04:38:48;;;;;;;12.05;4.55;;;;;;;;;;4999514;28;100061;-71
2023/10/01 04:41:16;;;;;;;10.43;4.10;;;;;;;;;;5005847;28;99928;-72
2023/10/01 04:43:51;;;;;;;14.38;4.68;;;;;;;;;;5002040;28;99889;-72
2023/10/01 04:46:20;;;;;;;8.65;4.88;;;;;;;;;;4998940;27;99445;-70
2023/10/01 04:48:47;;;;;;;14.63;5.10;;;;;;;;;;4999731;28;101040;-72
2023/10/01 04:51:13;;;;;;;9.45;4.50;;;;;;;;;;5000388;28;101530;-72
2023/10/01 04:53:46;;;;;;;9.60;4.53;;;;;;;;;;5003243;28;99135;-71
2023/10/01 04:56:20;;;;;;;9.07;4.13;;;;;;;;;;4997065;28;100376;-73
2023/10/01 04:58:51;;;;;;;6.60;4.30;;;;;;;;;;5001788;28;99113;-72
2023/10/01 05:01:23;;;;;;;7.97;4.45;;;;;;;;;;5004903;28;99082;-71
2023/10/01 05:03:50;;;;;;;;;;;;;;;;;;5008443;28;100275;-71
2023/10/01 05:06:20;;;;;;;9.38;4.70;;;;;;;;;;5001095;28;129419;-72
2023/10/01 05:08:51;;;;;;;10.73;5.35;;;;;;;;;;5005712;28;99409;-71
2023/10/01 05:11:21;;;;;;;10.05;4.60;;;;;;;;;;4997795;28;99919;-72
2023/10/01 05:13:51;;;;;;;10.05;4.60;;;;;;;;;;5005781;27;101071;-72
2023/10/01 05:16:27;;;;;;;8.23;4.50;;;;;;;;;;5005629;28;100326;-71
2023/10/01 05:19:09;;;;;;;8.90;4.28;;;;;;;;;;4998156;28;100997;-71
2023/10/01 05:21:36;;;;;;;;;;;;;;;;;;5003435;28;99901;-71
2023/10/01 05:24:03;;;;;;;8.20;5.05;;;;;;;;;;5001840;28;128433;-72
2023/10/01 05:26:35;;;;;;;12.80;5.25;;;;;;;;;;5002469;28;100299;-70
2023/10/01 05:29:07;;;;;;;9.43;4.00;;;;;;;;;;5003100;28;100214;-72
2023/10/01 05:31:34;;;;;;;6.93;3.95;;;;;;;;;;5002414;28;99571;-71
2023/10/01 05:34:01;;;;;;;10.00;4.57;;;;;;;;;;5002172;28;99217;-71
2023/10/01 05:36:29;;;;;;;9.95;4.50;;;;;;;;;;5000919;28;100107;-72
2023/10/01 05:38:56;;;;;;;10.32;5.03;;;;;;;;;;5002902;28;100274;-72
2023/10/01 05:41:44;;;;;;;4.80;3.55;;;;;;;;;;5001676;28;102798;-72
2023/10/01 05:44:11;;;;;;;5.93;4.10;;;;;;;;;;5000864;28;100752;-71
2023/10/01 05:46:37;;;;;;;11.13;4.38;;;;;;;;;;5004472;27;99416;-71
2023/10/01 05:49:04;;;;;;;11.52;4.63;;;;;;;;;;5006802;28;99872;-71
2023/10/01 05:51:36;;;;;;;9.32;4.47;;;;;;;;;;4998453;28;99436;-71
2023/10/01 05:54:02;;;;;;;8.80;4.47;;;;;;;;;;4998291;28;100037;-71
2023/10/01 05:56:36;;;;;;;7.68;4.38;;;;;;;;;;5002932;28;99001;-72
2023/10/01 05:59:06;;;;;;;7.13;4.68;;;;;;;;;;4995604;28;99076;-71
2023/10/01 06:01:33;;;;;;;10.13;4.75;;;;;;;;;;4999482;28;99446;-71
2023/10/01 06:04:04;;;;;;;7.13;4.07;;;;;;;;;;4998509;28;102936;-72
2023/10/01 06:06:36;;;;;;;13.35;5.00;;;;;;;;;;5003096;28;100396;-71
2023/10/01 06:09:09;;;;;;;7.67;4.13;;;;;;;;;;4997058;28;99456;-71
2023/10/01 06:11:38;;;;;;;10.90;4.50;;;;;;;;;;5001476;28;99715;-72
2023/10/01 06:14:29;;;;;;;11.35;4.55;;;;;;;;;;4997761;28;99346;-72
2023/10/01 06:17:00;;;;;;;17.95;5.82;;;;;;;;;;5001351;28;100321;-71
2023/10/01 06:19:27;;;;;;;13.05;4.60;;;;;;;;;;5000521;28;100214;-71
2023/10/01 06:21:54;;;;;;;7.15;4.55;;;;;;;;;;5001809;28;99196;-71
2023/10/01 06:24:21;;;;;;;10.98;4.22;;;;;;;;;;5002343;28;100327;-71
2023/10/01 06:26:50;;;;;;;11.45;4.65;;;;;;;;;;5000122;28;100119;-71
2023/10/01 06:29:17;;;;;;;13.75;4.65;;;;;;;;;;4998925;28;100079;-72
2023/10/01 06:32:00;;;;;;;10.48;5.20;;;;;;;;;;4997342;28;99887;-71
2023/10/01 06:34:32;;;;;;;8.85;5.35;;;;;;;;;;5002167;28;99760;-71
2023/10/01 06:36:59;;;;;;;8.23;4.63;;;;;;;;;;4993661;28;100308;-72
2023/10/01 06:39:28;;;;;;;12.88;4.47;;;;;;;;;;5002858;28;100216;-71
2023/10/01 06:42:17;;;;;;;11.48;4.47;;;;;;;;;;5003053;28;99837;-71
2023/10/01 06:44:41;;;;;;;8.18;4.65;;;;;;;;;;4998597;28;100151;-70
2023/10/01 06:47:14;;;;;;;9.98;5.20;;;;;;;;;;4997101;28;99091;-72
2023/10/01 06:49:57;;;;;;;7.05;4.25;;;;;;;;;;5003566;28;99089;-71
2023/10/01 06:52:26;;;;;;;12.15;4.82;;;;;;;;;;4998256;28;99823;-71
2023/10/01 06:54:57;;;;;;;12.23;4.50;;;;;;;;;;5005475;28;99555;-71
2023/10/01 06:57:27;;;;;;;12.48;4.75;;;;;;;;;;5000331;28;100182;-72
2023/10/01 06:59:57;;;;;;;7.68;4.57;;;;;;;;;;5003077;28;100069;-71
2023/10/01 07:02:25;;;;;;;10.57;5.00;;;;;;;;;;5001223;28;102152;-71
2023/10/01 07:05:01;;;;;;;8.75;4.85;;;;;;;;;;4999316;28;100455;-72
2023/10/01 07:07:40;;;;;;;11.07;4.97;;;;;;;;;;4998094;28;100148;-70
2023/10/01 07:10:10;;;;;;;7.90;5.10;;;;;;;;;;4995981;28;100060;-72
2023/10/01 07:12:38;;;;;;;7.32;5.05;;;;;;;;;;4996039;28;99365;-71
2023/10/01 07:15:06;;;;;;;12.45;5.63;;;;;;;;;;4999078;28;100067;-72
2023/10/01 07:17:35;;;;;;;15.25;6.05;;;;;;;;;;5000424;28;100083;-72
2023/10/01 07:20:18;;;;;;;13.30;5.25;;;;;;;;;;5000203;28;100103;-72
2023/10/01 07:22:46;;;;;;;13.48;5.32;;;;;;;;;;4998189;28;99654;-71
2023/10/01 07:25:28;;;;;;;10.27;5.82;;;;;;;;;;4997057;28;100249;-71
2023/10/01 07:27:55;;;;;;;13.32;5.22;;;;;;;;;;4991813;28;100511;-72
2023/10/01 07:30:39;;;;;;;11.30;5.20;;;;;;;;;;5004555;28;100001;-72
2023/10/01 07:33:06;;;;;;;9.57;5.57;;;;;;;;;;5000746;28;99959;-70
2023/10/01 07:35:34;;;;;;;15.00;5.72;;;;;;;;;;5003846;28;99899;-73
2023/10/01 07:38:02;;;;;;;13.38;5.60;;;;;;;;;;5002564;28;99290;-73
2023/10/01 07:40:50;;;;;;;10.32;6.03;;;;;;;;;;5003330;28;100320;-72
2023/10/01 07:43:15;;;;;;;10.80;5.93;;;;;;;;;;5001155;28;99684;-72
2023/10/01 07:45:55;;;;;;;10.63;5.68;;;;;;;;;;4998299;27;100312;-72
2023/10/01 07:48:23;;;;;;;16.08;6.35;;;;;;;;;;5007808;28;100645;-72
2023/10/01 07:50:52;;;;;;;11.02;5.63;;;;;;;;;;5008126;28;99051;-72
2023/10/01 07:53:20;;;;;;;7.78;4.75;;;;;;;;;;5005371;28;100294;-70
2023/10/01 07:55:49;;;;;;;13.88;5.53;;;;;;;;;;4998735;28;99362;-72
2023/10/01 07:58:25;;;;;;;13.30;5.45;;;;;;;;;;5014157;28;99684;-72
2023/10/01 08:03:48;;;;;;;12.82;5.57;;;;;;;;;;4992864;28;99849;-73
2023/10/01 08:06:16;;;;;;;14.73;4.95;;;;;;;;;;5007183;28;102117;-72
2023/10/01 08:08:47;;;;;;;10.77;6.18;;;;;;;;;;5009736;28;98940;-72
2023/10/01 08:13:59;;;;;;;16.15;6.40;;;;;;;;;;5009610;28;100074;-73
2023/10/01 08:16:27;;;;;;;12.48;6.20;;;;;;;;;;4999622;28;102525;-70
2023/10/01 08:18:57;;;;;;;13.55;5.30;;;;;;;;;;5002115;28;100262;-71
2023/10/01 08:21:37;;;;;;;12.40;5.47;;;;;;;;;;5002656;28;100191;-71
2023/10/01 08:24:09;;;;;;;11.32;6.03;;;;;;;;;;5010946;28;99160;-71
2023/10/01 08:26:57;;;;;;;10.55;5.75;;;;;;;;;;5018616;28;100190;-73
2023/10/01 08:29:59;;;;;;;10.93;5.70;;;;;;;;;;5008502;28;99437;-73
2023/10/01 08:32:22;;;;;;;11.07;6.30;;;;;;;;;;5002023;28;99731;-72
2023/10/01 08:35:01;;;;;;;8.25;5.10;;;;;;;;;;5010556;28;100153;-73
2023/10/01 08:37:31;;;;;;;16.48;5.85;;;;;;;;;;5001552;28;99966;-74
2023/10/01 08:39:58;;;;;;;10.63;5.75;;;;;;;;;;5009497;28;99321;-73
2023/10/01 08:42:30;;;;;;;12.02;5.80;;;;;;;;;;5009214;28;99401;-72
2023/10/01 08:45:03;;;;;;;;;;;;;;;;;;5010043;28;99886;-70
2023/10/01 08:47:37;;;;;;;12.73;5.40;;;;;;;;;;5001460;28;129093;-71
2023/10/01 08:52:56;;;;;;;10.75;5.07;;;;;;;;;;5010278;28;99936;-71
2023/10/01 08:55:25;;;;;;;16.98;6.15;;;;;;;;;;5009336;28;99983;-70
2023/10/01 08:57:53;;;;;;;14.65;5.85;;;;;;;;;;5005864;28;98881;-71
2023/10/01 09:00:21;;;;;;;12.88;5.80;;;;;;;;;;5006343;28;101351;-71
2023/10/01 09:02:51;;;;;;;14.05;5.43;;;;;;;;;;5005727;28;101169;-71
2023/10/01 09:05:24;;;;;;;10.13;5.90;;;;;;;;;;5005306;28;99300;-70
2023/10/01 09:10:53;;;;;;;13.13;5.57;;;;;;;;;;5002234;28;99133;-70
2023/10/01 09:13:25;;;;;;;14.02;6.03;;;;;;;;;;5003163;28;99816;-70
2023/10/01 09:15:55;;;;;;;11.57;5.97;;;;;;;;;;4999400;28;100201;-71
2023/10/01 09:18:23;;;;;;;11.15;5.85;;;;;;;;;;5005290;28;100228;-71
2023/10/01 09:21:06;;;;;;;17.17;5.88;;;;;;;;;;5006733;28;99550;-70
2023/10/01 09:23:59;;;;;;;12.35;5.55;;;;;;;;;;5006073;28;99806;-70
2023/10/01 09:26:39;;;;;;;10.68;5.28;;;;;;;;;;5004597;28;98994;-70
2023/10/01 09:29:20;;;;;;;13.45;5.72;;;;;;;;;;5006011;28;99495;-71
2023/10/01 09:31:56;;;;;;;9.32;5.28;;;;;;;;;;5005366;28;99680;-72
2023/10/01 09:34:33;;;;;;;10.90;5.43;;;;;;;;;;5007969;28;99187;-70
2023/10/01 09:37:02;;;;;;;10.38;5.30;;;;;;;;;;5005870;28;100435;-70
2023/10/01 09:39:38;;;;;;;11.02;5.88;;;;;;;;;;5004741;28;99128;-71
2023/10/01 09:42:22;;;;;;;11.60;5.57;;;;;;;;;;5005555;28;99164;-71
2023/10/01 09:44:53;;;;;;;13.25;5.32;;;;;;;;;;4999248;28;99348;-70
2023/10/01 09:47:25;;;;;;;11.38;5.57;;;;;;;;;;5004782;28;98969;-71
2023/10/01 09:49:52;;;;;;;15.98;6.10;;;;;;;;;;5005129;28;98672;-70
2023/10/01 09:52:30;;;;;;;10.98;5.78;;;;;;;;;;5006592;27;99645;-71
2023/10/01 09:55:01;;;;;;;11.18;5.07;;;;;;;;;;4996643;28;99860;-71
2023/10/01 09:57:34;;;;;;;14.75;5.63;;;;;;;;;;5008049;28;99904;-72
2023/10/01 10:00:17;;;;;;;9.45;5.55;;;;;;;;;;5005525;28;99268;-71
2023/10/01 10:02:51;;;;;;;12.20;6.22;;;;;;;;;;5005001;28;100147;-71
2023/10/01 10:05:26;;;;;;;9.80;4.90;;;;;;;;;;5005462;28;100564;-71
2023/10/01 10:07:53;;;;;;;9.88;5.43;;;;;;;;;;5002331;28;99946;-72
2023/10/01 10:10:24;;;;;;;12.30;6.60;;;;;;;;;;5005378;28;99829;-72
2023/10/01 10:12:53;;;;;;;11.25;5.78;;;;;;;;;;5005626;28;99628;-72
2023/10/01 10:15:46;;;;;;;16.20;6.22;;;;;;;;;;4998171;28;99346;-69
2023/10/01 10:18:15;;;;;;;14.40;6.18;;;;;;;;;;5001897;28;100095;-70
2023/10/01 10:20:58;;;;;;;16.10;6.20;;;;;;;;;;5007819;28;100530;-70
2023/10/01 10:23:29;;;;;;;12.50;6.05;;;;;;;;;;5002332;28;100496;-70
2023/10/01 10:26:12;;;;;;;13.77;6.03;;;;;;;;;;5005255;28;100369;-70
2023/10/01 10:28:39;;;;;;;;;;;;;;;;;;5004847;28;99633;-71
2023/10/01 10:31:30;;;;;;;12.38;6.03;;;;;;;;;;5005532;28;129834;-71
2023/10/01 10:34:21;;;;;;;13.23;6.10;;;;;;;;;;5002700;28;100371;-70
2023/10/01 10:36:53;;;;;;;12.65;5.32;;;;;;;;;;5004066;28;99058;-72
2023/10/01 10:39:40;;;;;;;11.45;5.47;;;;;;;;;;5005349;28;100022;-70
2023/10/01 10:42:27;;;;;;;17.48;6.25;;;;;;;;;;5004302;28;99520;-71
2023/10/01 10:45:27;;;;;;;12.60;5.68;;;;;;;;;;5007513;28;100253;-70
2023/10/01 10:47:59;;;;;;;14.07;6.30;;;;;;;;;;5004442;28;100335;-70
2023/10/01 10:50:45;;;;;;;11.85;5.90;;;;;;;;;;4995684;28;98898;-71
2023/10/01 10:53:15;;;;;;;12.38;5.20;;;;;;;;;;5004523;28;99964;-70
2023/10/01 10:55:53;;;;;;;11.93;5.38;;;;;;;;;;5004932;28;100282;-71
2023/10/01 10:58:21;;;;;;;14.70;6.35;;;;;;;;;;5003578;28;100310;-70
2023/10/01 11:00:48;;;;;;;13.65;7.75;;;;;;;;;;5004853;28;100067;-72
2023/10/01 11:03:16;;;;;;;10.23;5.45;;;;;;;;;;5004130;28;100723;-71
2023/10/01 11:05:49;;;;;;;12.60;6.55;;;;;;;;;;5004669;28;100199;-71
2023/10/01 11:08:25;;;;;;;14.18;6.47;;;;;;;;;;5007115;28;99160;-69
2023/10/01 11:10:56;;;;;;;10.85;5.70;;;;;;;;;;5003595;28;98998;-70
2023/10/01 11:13:36;;;;;;;11.77;5.82;;;;;;;;;;5003178;28;99278;-71
2023/10/01 11:16:14;;;;;;;13.32;6.32;;;;;;;;;;5003955;28;100210;-70
2023/10/01 11:18:41;;;;;;;15.85;6.78;;;;;;;;;;4995688;28;100114;-70
2023/10/01 11:21:13;;;;;;;14.52;6.00;;;;;;;;;;5004087;28;99174;-71
2023/10/01 11:23:39;;;;;;;15.93;6.72;;;;;;;;;;5004334;28;100302;-70
2023/10/01 11:26:06;;;;;;;13.10;5.38;;;;;;;;;;5003577;28;100110;-72
2023/10/01 11:28:41;;;;;;;12.45;7.22;;;;;;;;;;5005693;28;100504;-71
2023/10/01 11:31:23;;;;;;;11.13;6.30;;;;;;;;;;5004328;28;99974;-71
2023/10/01 11:34:05;;;;;;;13.68;6.38;;;;;;;;;;5001684;28;99306;-70
2023/10/01 11:36:38;;;;;;;13.30;6.13;;;;;;;;;;5003943;28;99945;-70
2023/10/01 11:39:05;;;;;;;17.15;6.85;;;;;;;;;;5003182;28;100664;-71
2023/10/01 11:41:41;;;;;;;9.88;5.55;;;;;;;;;;5003867;28;100710;-71
2023/10/01 11:44:10;;;;;;;15.18;6.53;;;;;;;;;;5002024;28;99281;-72
2023/10/01 11:49:34;;;;;;;14.38;5.93;;;;;;;;;;5003926;28;100127;-71
2023/10/01 11:52:21;;;;;;;16.33;7.30;;;;;;;;;;5000912;28;100485;-70
2023/10/01 11:54:53;;;;;;;16.15;7.10;;;;;;;;;;5002214;28;99497;-70
2023/10/01 11:57:23;;;;;;;11.68;5.70;;;;;;;;;;5004017;28;99782;-71
2023/10/01 11:59:56;;;;;;;12.57;6.95;;;;;;;;;;5003881;28;99390;-70
2023/10/01 12:02:43;;;;;;;14.57;7.25;;;;;;;;;;5003734;28;99336;-70
2023/10/01 12:05:13;;;;;;;14.10;7.28;;;;;;;;;;5002278;28;100868;-71
2023/10/01 12:07:45;;;;;;;11.45;5.88;;;;;;;;;;4999731;28;98953;-70
2023/10/01 12:12:59;;;;;;;19.45;7.82;;;;;;;;;;4999599;28;99333;-70
2023/10/01 12:15:35;;;;;;;14.15;6.45;;;;;;;;;;5003631;28;99384;-72
2023/10/01 12:18:46;;;;;;;15.30;7.30;;;;;;;;;;5000069;28;99788;-71
2023/10/01 12:20:58;;;;;;;12.55;7.20;;;;;;;;;;4992494;28;100299;-70
2023/10/01 12:23:26;;;;;;;21.50;7.47;;;;;;;;;;5004383;28;100291;-71
2023/10/01 12:26:00;;;;;;;14.93;6.68;;;;;;;;;;5001917;28;100163;-70
2023/10/01 12:28:29;;;;;;;12.38;7.45;;;;;;;;;;5002043;28;99062;-70
2023/10/01 12:31:00;;;;;;;15.68;8.20;;;;;;;;;;5001398;28;100986;-71
2023/10/01 12:33:40;;;;;;;15.18;6.28;;;;;;;;;;5003740;28;99914;-72
2023/10/01 12:36:11;;;;;;;18.38;7.75;;;;;;;;;;4994966;28;100119;-71
2023/10/01 12:38:38;;;;;;;20.40;8.70;;;;;;;;;;5004843;27;100122;-71
2023/10/01 12:41:05;;;;;;;18.70;7.55;;;;;;;;;;5000713;28;100442;-71
2023/10/01 12:43:39;;;;;;;15.65;7.22;;;;;;;;;;5000873;28;99245;-70
2023/10/01 12:46:08;;;;;;;18.50;7.97;;;;;;;;;;4999996;28;99464;-71
2023/10/01 12:48:39;;;;;;;15.98;8.88;;;;;;;;;;4999826;28;99036;-71
2023/10/01 12:51:09;;;;;;;12.97;6.93;;;;;;;;;;4998323;28;99254;-71
2023/10/01 12:53:47;;;;;;;13.88;7.97;;;;;;;;;;5004681;28;100275;-70
2023/10/01 12:56:35;;;;;;;12.57;7.18;;;;;;;;;;4998985;28;100500;-70
2023/10/01 12:59:02;;;;;;;15.10;7.55;;;;;;;;;;5000160;28;99719;-70
2023/10/01 13:01:32;;;;;;;18.58;7.88;;;;;;;;;;4997722;28;100313;-70
2023/10/01 13:06:46;;;;;;;11.85;7.63;;;;;;;;;;5003362;28;99914;-69
2023/10/01 13:09:53;;;;;;;12.05;7.03;;;;;;;;;;5004340;27;99093;-71
2023/10/01 13:12:06;;;;;;;15.48;7.53;;;;;;;;;;5001128;28;100358;-69
2023/10/01 13:14:32;;;;;;;16.27;7.07;;;;;;;;;;5004610;28;99529;-70
2023/10/01 13:17:01;;;;;;;17.58;6.93;;;;;;;;;;5002047;28;100852;-69
2023/10/01 13:19:33;;;;;;;11.43;6.80;;;;;;;;;;5002678;28;99968;-70
2023/10/01 13:22:04;;;;;;;12.95;6.55;;;;;;;;;;5003486;28;100109;-69
2023/10/01 13:24:31;;;;;;;16.48;6.78;;;;;;;;;;4998672;28;99315;-70
2023/10/01 13:27:10;;;;;;;12.73;6.85;;;;;;;;;;5001263;28;100000;-70
2023/10/01 13:29:38;;;;;;;11.85;6.75;;;;;;;;;;4999451;28;100069;-70
2023/10/01 13:32:15;;;;;;;9.95;6.03;;;;;;;;;;5004171;28;99980;-71
2023/10/01 13:34:54;;;;;;;13.38;5.93;;;;;;;;;;5005765;28;99238;-70
2023/10/01 14:10:36;;;;;;;10.88;6.97;;;;;;;;;;5000317;28;99907;-70
2023/10/01 14:13:04;;;;;;;21.38;7.68;;;;;;;;;;4999554;28;100854;-71
2023/10/01 14:15:31;;;;;;;9.00;6.25;;;;;;;;;;4995159;28;99878;-71
2023/10/01 14:17:58;;;;;;;16.27;7.63;;;;;;;;;;4995888;28;100395;-70
2023/10/01 14:23:26;;;;;;;12.30;7.70;;;;;;;;;;5006144;28;99241;-70
2023/10/01 14:25:53;;;;;;;;;;;;;;;;;;5000132;28;100394;-70
2023/10/01 14:28:20;;;;;;;12.65;6.15;;;;;;;;;;4996787;28;129973;-70
2023/10/01 14:30:50;;;;;;;13.27;6.72;;;;;;;;;;4998448;28;100116;-71
2023/10/01 14:33:25;;;;;;;;;;;;;;;;;;5002649;28;100108;-70
2023/10/01 14:35:52;;;;;;;11.23;6.03;;;;;;;;;;4996094;28;128039;-71
2023/10/01 14:38:21;;;;;;;14.68;6.45;;;;;;;;;;5000632;28;100416;-72
2023/10/01 14:40:56;;;;;;;13.07;6.38;;;;;;;;;;5000770;28;100032;-71
2023/10/01 14:43:24;;;;;;;12.55;7.03;;;;;;;;;;4997954;27;100084;-70
2023/10/01 14:45:51;;;;;;;12.43;6.63;;;;;;;;;;5001494;28;100551;-70
2023/10/01 14:48:18;;;;;;;15.45;7.07;;;;;;;;;;4998860;28;100068;-71
2023/10/01 14:50:45;;;;;;;12.55;6.35;;;;;;;;;;5000499;28;99937;-71
2023/10/01 14:53:12;;;;;;;11.82;6.45;;;;;;;;;;5001847;28;100118;-71
2023/10/01 14:55:42;;;;;;;14.07;6.68;;;;;;;;;;5008581;28;101020;-71
2023/10/01 14:58:12;;;;;;;10.23;6.15;;;;;;;;;;5000058;28;100098;-70
2023/10/01 15:00:52;;;;;;;13.40;7.05;;;;;;;;;;5000726;28;100875;-70
2023/10/01 15:03:20;;;;;;;14.93;7.47;;;;;;;;;;4993795;28;100198;-69
2023/10/01 15:05:46;;;;;;;17.70;7.93;;;;;;;;;;4996477;28;101194;-71
2023/10/01 15:08:13;;;;;;;14.45;6.95;;;;;;;;;;5000263;28;99213;-71
2023/10/01 15:10:49;;;;;;;10.25;6.85;;;;;;;;;;5000330;28;100580;-71
2023/10/01 15:13:17;;;;;;;17.25;7.88;;;;;;;;;;4995816;28;100381;-71
2023/10/01 15:16:02;;;;;;;10.93;6.93;;;;;;;;;;4997212;28;100426;-72
2023/10/01 15:18:40;;;;;;;16.48;7.05;;;;;;;;;;5000749;28;100353;-70
2023/10/01 15:21:19;;;;;;;10.15;6.63;;;;;;;;;;5003866;28;99852;-71
2023/10/01 15:23:50;;;;;;;16.63;8.95;;;;;;;;;;5004193;28;98890;-71
2023/10/01 15:26:20;;;;;;;8.95;5.75;;;;;;;;;;4999604;28;99426;-71
2023/10/01 15:28:53;;;;;;;13.45;7.15;;;;;;;;;;5001078;28;100003;-71
2023/10/01 15:31:30;;;;;;;12.82;6.75;;;;;;;;;;4998410;28;99853;-72
2023/10/01 15:34:00;;;;;;;11.85;7.00;;;;;;;;;;4998316;28;100445;-71
2023/10/01 15:36:40;;;;;;;11.55;6.38;;;;;;;;;;5003532;28;99237;-71
2023/10/01 15:39:14;;;;;;;15.10;6.95;;;;;;;;;;5007350;28;100008;-70
2023/10/01 15:41:44;;;;;;;13.48;6.78;;;;;;;;;;5005199;28;100072;-72
2023/10/01 15:44:11;;;;;;;13.95;6.63;;;;;;;;;;5005318;28;99953;-72
2023/10/01 15:46:40;;;;;;;13.65;6.88;;;;;;;;;;5004736;28;99504;-71
2023/10/01 15:49:18;;;;;;;8.90;6.43;;;;;;;;;;5004033;28;100606;-71
2023/10/01 15:51:48;;;;;;;15.40;7.05;;;;;;;;;;5010197;28;99322;-71
2023/10/01 15:54:24;;;;;;;11.02;6.63;;;;;;;;;;5003856;28;100273;-71
2023/10/01 15:56:53;;;;;;;15.57;7.15;;;;;;;;;;5004434;28;99301;-73
2023/10/01 15:59:22;;;;;;;14.73;8.07;;;;;;;;;;5003351;28;99930;-72
2023/10/01 16:01:52;;;;;;;15.45;6.75;;;;;;;;;;5003921;28;100237;-71
2023/10/01 16:04:22;;;;;;;11.50;6.88;;;;;;;;;;5004102;28;99819;-72
2023/10/01 16:07:00;;;;;;;14.02;6.45;;;;;;;;;;5005087;28;99418;-70
2023/10/01 16:09:38;;;;;;;18.25;6.40;;;;;;;;;;5007077;28;100066;-70